createdAt,value
2024-02-19T15:52:55.247Z,101994.72
2024-02-19T15:56:08.608Z,102003.28
2024-02-19T15:59:15.138Z,102007.81
2024-02-19T16:02:20.724Z,102016.16
2024-02-19T16:05:26.277Z,102017.47
2024-02-19T16:08:35.077Z,102018.28
2024-02-19T16:11:40.350Z,102026.22
2024-02-19T16:14:45.841Z,102018.72
2024-02-19T16:17:51.732Z,102005.59
2024-02-19T16:20:57.760Z,102006.31
2024-02-19T16:24:03.513Z,102008.59
2024-02-19T16:27:09.226Z,102007.34
2024-02-19T16:30:15.340Z,102007.94
2024-02-19T16:33:20.582Z,102006.59
2024-02-19T16:36:27.985Z,102012.59
2024-02-19T16:39:33.672Z,102017.97
2024-02-19T16:42:39.597Z,102030.59
2024-02-19T16:46:04.330Z,102027.75
2024-02-19T16:49:10.054Z,102027.94
2024-02-19T16:52:17.023Z,102027.53
2024-02-19T16:55:23.117Z,102034.34
2024-02-19T16:58:33.352Z,102032.94
2024-02-19T17:01:40.429Z,102034.34
2024-02-19T17:04:48.828Z,102034.78
2024-02-19T17:07:54.602Z,102027.19
2024-02-19T17:11:00.399Z,102023.09
2024-02-19T17:14:06.333Z,102023.09
2024-02-19T17:17:13.125Z,102015.50
2024-02-19T17:20:18.754Z,102013.03
2024-02-19T17:23:24.676Z,102016.03
2024-02-19T17:26:31.480Z,102016.31
2024-02-19T17:29:37.594Z,102026.56
2024-02-19T17:32:43.223Z,102026.97
2024-02-19T17:35:48.998Z,102026.97
2024-02-19T17:38:54.768Z,102025.75
2024-02-19T17:41:59.910Z,102026.09
2024-02-19T17:45:07.859Z,102030.41
2024-02-19T17:48:15.887Z,102042.72
2024-02-19T17:51:22.891Z,102050.75
2024-02-19T17:54:30.993Z,102063.25
2024-02-19T17:57:37.021Z,102061.59
2024-02-19T18:00:43.697Z,102065.25
2024-02-19T18:03:49.650Z,102071.19
2024-02-19T18:06:57.338Z,102075.72
2024-02-19T18:10:05.298Z,102070.13
2024-02-19T18:13:11.526Z,102064.31
2024-02-19T18:16:17.730Z,102059.56
2024-02-19T18:19:23.426Z,102051.34
2024-02-19T18:22:29.405Z,102046.16
2024-02-19T18:25:35.513Z,102036.69
2024-02-19T18:28:41.316Z,102044.91
2024-02-19T18:31:51.794Z,102034.06
2024-02-19T18:34:57.898Z,102047.22
2024-02-19T18:38:05.714Z,102050.28
2024-02-19T18:41:12.950Z,102054.84
2024-02-19T18:44:18.835Z,102054.53
2024-02-19T18:47:25.383Z,102051.16
2024-02-19T18:50:31.066Z,102062.22
2024-02-19T18:53:36.829Z,102062.41
2024-02-19T18:56:43.690Z,102065.69
2024-02-19T18:59:50.577Z,102079.53
2024-02-19T19:02:59.744Z,102077.47
2024-02-19T19:06:05.744Z,102071.34
2024-02-19T19:09:12.264Z,102074.19
2024-02-19T19:12:19.313Z,102059.44
2024-02-19T19:15:25.031Z,102045.69
2024-02-19T19:18:32.557Z,102051.03
2024-02-19T19:21:38.632Z,102057.03
2024-02-19T19:24:48.388Z,102067.44
2024-02-19T19:27:53.915Z,102068.78
2024-02-19T19:31:00.685Z,102084.59
2024-02-19T19:34:05.980Z,102098.63
2024-02-19T19:37:12.920Z,102105.97
2024-02-19T19:40:20.251Z,102104.59
2024-02-19T19:43:26.126Z,102096.84
2024-02-19T19:46:32.183Z,102102.63
2024-02-19T19:49:37.879Z,102091.78
2024-02-19T19:52:44.662Z,102093.03
2024-02-19T19:55:55.289Z,102095.34
2024-02-19T19:59:01.330Z,102104.66
2024-02-19T20:02:07.821Z,102101.38
2024-02-19T20:05:13.708Z,102093.03
2024-02-19T20:08:20.252Z,102089.75
2024-02-19T20:11:25.937Z,102090.38
2024-02-19T20:14:31.933Z,102087.34
2024-02-19T20:17:39.140Z,102090.69
2024-02-19T20:20:45.217Z,102100.59
2024-02-19T20:23:51.084Z,102100.59
2024-02-19T20:27:00.816Z,102090.97
2024-02-19T20:30:08.223Z,102090.31
2024-02-19T20:33:14.483Z,102097.22
2024-02-19T20:36:22.117Z,102095.34
2024-02-19T20:39:28.767Z,102099.84
2024-02-19T20:42:36.147Z,102097.69
2024-02-19T20:45:42.206Z,102104.75
2024-02-19T20:48:48.349Z,102101.53
2024-02-19T20:51:55.032Z,102105.00
2024-02-19T20:55:00.727Z,102108.16
2024-02-19T20:58:06.542Z,102107.56
2024-02-19T21:01:12.626Z,102103.75
2024-02-19T21:04:19.066Z,102107.88
2024-02-19T21:07:24.838Z,102107.88
2024-02-19T21:10:30.768Z,102095.25
2024-02-19T21:13:37.034Z,102082.34
2024-02-19T21:16:45.202Z,102079.06
2024-02-19T21:19:51.683Z,102068.56
2024-02-19T21:22:57.372Z,102069.91
2024-02-19T21:26:03.525Z,102077.56
2024-02-19T21:29:09.632Z,102077.81
2024-02-19T21:32:15.335Z,102070.84
2024-02-19T21:35:21.698Z,102079.28
2024-02-19T21:38:29.600Z,102078.91
2024-02-19T21:41:35.595Z,102081.31
2024-02-19T21:44:41.047Z,102072.31
2024-02-19T21:47:48.723Z,102071.06
2024-02-19T21:50:54.726Z,102070.72
2024-02-19T21:54:00.833Z,102069.81
2024-02-19T21:57:06.634Z,102066.19
2024-02-19T22:00:13.326Z,102057.94
2024-02-19T22:03:19.090Z,102060.72
2024-02-19T22:06:25.154Z,102054.44
2024-02-19T22:09:31.218Z,102051.97
2024-02-19T22:12:36.859Z,102045.06
2024-02-19T22:15:43.212Z,102046.81
2024-02-19T22:18:48.858Z,102048.97
2024-02-19T22:21:56.764Z,102039.97
2024-02-19T22:25:04.473Z,102040.78
2024-02-19T22:28:10.152Z,102041.63
2024-02-19T22:31:16.005Z,102044.16
2024-02-19T22:34:21.714Z,102047.47
2024-02-19T22:37:27.923Z,102047.41
2024-02-19T22:40:33.933Z,102053.63
2024-02-19T22:43:40.148Z,102047.97
2024-02-19T22:46:45.670Z,102050.16
2024-02-19T22:49:52.594Z,102061.25
2024-02-19T22:52:58.190Z,102060.13
2024-02-19T22:56:03.852Z,102061.78
2024-02-19T22:59:18.264Z,102060.97
2024-02-19T23:02:27.505Z,102063.91
2024-02-19T23:05:33.969Z,102065.00
2024-02-19T23:08:39.633Z,102064.44
2024-02-19T23:11:45.173Z,102076.19
2024-02-19T23:14:51.288Z,102065.63
2024-02-19T23:17:56.836Z,102058.88
2024-02-19T23:21:03.331Z,102058.66
2024-02-19T23:24:09.317Z,102058.59
2024-02-19T23:27:15.296Z,102049.44
2024-02-19T23:30:21.523Z,102056.13
2024-02-19T23:33:26.910Z,102062.00
2024-02-19T23:36:34.639Z,102055.13
2024-02-19T23:39:40.393Z,102055.94
2024-02-19T23:42:46.700Z,102058.41
2024-02-19T23:45:52.267Z,102059.69
2024-02-19T23:48:58.554Z,102056.41
2024-02-19T23:52:04.592Z,102055.75
2024-02-19T23:55:10.762Z,102055.56
2024-02-19T23:58:16.340Z,102065.00
